createdAt,value
2023-05-01T00:02:09.556Z,99272.47
2023-05-01T00:04:36.267Z,99277.16
2023-05-01T00:07:02.978Z,99268.25
2023-05-01T00:09:29.707Z,99261.75
2023-05-01T00:11:56.364Z,99270.75
2023-05-01T00:14:23.020Z,99266.59
2023-05-01T00:16:49.743Z,99264.91
2023-05-01T00:19:19.110Z,99258.13
2023-05-01T00:21:51.641Z,99265.25
2023-05-01T00:24:18.273Z,99258.50
2023-05-01T00:26:45.214Z,99264.69
2023-05-01T00:29:11.998Z,99265.81
2023-05-01T00:31:38.917Z,99265.03
2023-05-01T00:34:06.157Z,99246.22
2023-05-01T00:36:33.028Z,99245.28
2023-05-01T00:38:59.633Z,99252.31
2023-05-01T00:41:26.328Z,99249.69
2023-05-01T00:43:52.999Z,99240.97
2023-05-01T00:46:19.733Z,99240.03
2023-05-01T00:48:46.463Z,99238.34
2023-05-01T00:51:13.917Z,99231.56
2023-05-01T00:53:43.864Z,99230.06
2023-05-01T00:56:11.678Z,99224.31
2023-05-01T00:58:39.324Z,99227.78
2023-05-01T01:01:06.018Z,99220.06
2023-05-01T01:03:32.656Z,99221.19
2023-05-01T01:06:14.175Z,99217.88
2023-05-01T01:08:46.175Z,99212.63
2023-05-01T01:11:15.542Z,99210.75
2023-05-01T01:14:08.058Z,99207.47
2023-05-01T01:16:48.772Z,99209.34
2023-05-01T01:19:58.490Z,99199.84
2023-05-01T01:22:27.934Z,99202.38
2023-05-01T01:25:13.807Z,99197.97
2023-05-01T01:28:06.644Z,99196.34
2023-05-01T01:30:56.806Z,99191.09
2023-05-01T01:33:49.564Z,99189.44
2023-05-01T01:36:21.408Z,99189.44
2023-05-01T01:39:01.492Z,99185.19
2023-05-01T01:41:34.640Z,99186.31
2023-05-01T01:44:21.242Z,99186.38
2023-05-01T01:46:50.534Z,99177.75
2023-05-01T01:49:21.992Z,99175.97
2023-05-01T01:51:50.410Z,99172.56
2023-05-01T01:54:22.293Z,99173.59
2023-05-01T01:56:51.075Z,99177.25
2023-05-01T01:59:19.771Z,99166.94
2023-05-01T02:01:47.783Z,99167.78
2023-05-01T02:04:16.364Z,99168.97
2023-05-01T02:06:44.866Z,99163.78
2023-05-01T02:09:12.682Z,99166.84
2023-05-01T02:11:40.319Z,99152.03
2023-05-01T02:14:09.293Z,99152.03
2023-05-01T02:16:37.382Z,99152.22
2023-05-01T02:19:05.248Z,99153.63
2023-05-01T02:21:34.914Z,99149.91
2023-05-01T02:24:02.486Z,99150.66
2023-05-01T02:26:29.870Z,99142.88
2023-05-01T02:28:56.813Z,99137.13
2023-05-01T02:31:23.551Z,99137.13
2023-05-01T02:33:50.305Z,99127.66
2023-05-01T02:36:16.990Z,99130.38
2023-05-01T02:38:44.048Z,99134.56
2023-05-01T02:41:11.971Z,99122.50
2023-05-01T02:43:41.522Z,99132.28
2023-05-01T02:46:10.605Z,99128.81
2023-05-01T02:48:38.761Z,99127.31
2023-05-01T02:51:05.993Z,99118.50
2023-05-01T02:53:33.658Z,99116.16
2023-05-01T02:56:00.714Z,99116.56
2023-05-01T02:58:32.408Z,99111.59
2023-05-01T03:00:59.191Z,99110.41
2023-05-01T03:03:26.355Z,99110.97
2023-05-01T03:05:52.981Z,99105.88
2023-05-01T03:08:19.744Z,99096.25
2023-05-01T03:10:46.399Z,99096.50
2023-05-01T03:13:13.047Z,99100.13
2023-05-01T03:15:39.851Z,99099.47
2023-05-01T03:18:07.146Z,99095.34
2023-05-01T03:20:34.184Z,99095.16
2023-05-01T03:23:01.188Z,99101.94
2023-05-01T03:25:27.854Z,99089.84
2023-05-01T03:27:55.370Z,99083.56
2023-05-01T03:30:22.144Z,99077.56
2023-05-01T03:32:49.004Z,99085.59
2023-05-01T03:35:15.677Z,99074.50
2023-05-01T03:37:42.362Z,99079.94
2023-05-01T03:40:09.508Z,99082.72
2023-05-01T03:42:36.136Z,99075.19
2023-05-01T03:45:02.761Z,99074.53
2023-05-01T03:47:29.885Z,99081.56
2023-05-01T03:49:56.877Z,99071.13
2023-05-01T03:52:23.811Z,99069.63
2023-05-01T03:54:50.667Z,99071.28
2023-05-01T03:57:17.384Z,99066.31
2023-05-01T03:59:44.075Z,99061.31
2023-05-01T04:02:10.760Z,99063.09
2023-05-01T04:04:37.598Z,99060.47
2023-05-01T04:07:05.006Z,99068.50
2023-05-01T04:09:31.610Z,99066.81
2023-05-01T04:11:58.431Z,99062.50
2023-05-01T04:14:25.156Z,99063.50
2023-05-01T04:16:52.171Z,99063.44
2023-05-01T04:19:18.912Z,99069.44
2023-05-01T04:21:47.275Z,99067.75
2023-05-01T04:24:13.910Z,99063.25
2023-05-01T04:29:14.960Z,99059.97
2023-05-01T04:31:43.364Z,99057.50
2023-05-01T04:34:10.194Z,99056.94
2023-05-01T04:36:37.171Z,99068.94
2023-05-01T04:39:04.008Z,99063.34
2023-05-01T04:41:30.603Z,99061.66
2023-05-01T04:43:57.234Z,99064.88
2023-05-01T04:46:24.017Z,99060.31
2023-05-01T04:48:50.662Z,99060.81
2023-05-01T04:51:17.309Z,99058.50
2023-05-01T04:53:43.986Z,99062.41
2023-05-01T04:56:10.712Z,99063.75
2023-05-01T04:58:37.343Z,99059.75
2023-05-01T05:01:03.994Z,99061.84
2023-05-01T05:03:30.676Z,99061.75
2023-05-01T05:05:57.421Z,99065.13
2023-05-01T05:08:24.177Z,99066.25
2023-05-01T05:10:56.905Z,99064.78
2023-05-01T05:13:23.555Z,99067.63
2023-05-01T05:15:50.135Z,99065.66
2023-05-01T05:18:16.865Z,99057.13
2023-05-01T05:20:43.753Z,99061.94
2023-05-01T05:23:10.496Z,99059.72
2023-05-01T05:25:37.542Z,99058.34
2023-05-01T05:28:04.411Z,99053.56
2023-05-01T05:30:31.112Z,99047.25
2023-05-01T05:32:58.073Z,99054.00
2023-05-01T05:35:24.808Z,99048.13
2023-05-01T05:37:51.422Z,99048.47
2023-05-01T05:40:19.457Z,99048.28
2023-05-01T05:42:46.057Z,99050.91
2023-05-01T05:45:12.671Z,99050.16
2023-05-01T05:47:39.360Z,99049.47
2023-05-01T05:50:07.476Z,99043.63
2023-05-01T05:52:34.108Z,99044.91
2023-05-01T05:55:01.138Z,99041.78
2023-05-01T05:57:27.770Z,99035.69
2023-05-01T05:59:54.662Z,99036.56
2023-05-01T06:02:22.282Z,99030.06
2023-05-01T06:04:48.976Z,99029.06
2023-05-01T06:07:15.908Z,99019.59
2023-05-01T06:09:42.550Z,99028.25
2023-05-01T06:12:09.382Z,99027.09
2023-05-01T06:14:36.050Z,99028.06
2023-05-01T06:17:02.715Z,99023.44
2023-05-01T06:19:29.373Z,99018.69
2023-05-01T06:21:55.949Z,99016.78
2023-05-01T06:24:22.612Z,99015.63
2023-05-01T06:26:49.243Z,99012.44
2023-05-01T06:29:16.622Z,99011.34
2023-05-01T06:31:43.406Z,99015.75
2023-05-01T06:34:10.074Z,99009.81
2023-05-01T06:36:36.691Z,99005.31
2023-05-01T06:39:03.448Z,99006.81
2023-05-01T06:41:30.087Z,99006.94
2023-05-01T06:43:56.753Z,99003.81
2023-05-01T06:46:23.404Z,99000.72
2023-05-01T06:48:50.229Z,99009.03
2023-05-01T06:51:16.989Z,99003.41
2023-05-01T06:53:43.672Z,99002.34
2023-05-01T06:56:10.326Z,99002.22
2023-05-01T06:58:37.080Z,99003.66
2023-05-01T07:01:04.201Z,98989.34
2023-05-01T07:03:31.041Z,98996.53
2023-05-01T07:05:57.740Z,98987.94
2023-05-01T07:08:24.431Z,98983.09
2023-05-01T07:10:51.597Z,98973.72
2023-05-01T07:13:18.380Z,98976.16
2023-05-01T07:15:45.495Z,98973.16
2023-05-01T07:18:12.753Z,98968.81
2023-05-01T07:20:39.593Z,98961.44
2023-05-01T07:23:07.519Z,98958.44
2023-05-01T07:25:34.528Z,98962.41
2023-05-01T07:28:02.842Z,98955.50
2023-05-01T07:30:30.509Z,98947.66
2023-05-01T07:32:58.054Z,98932.56
2023-05-01T07:35:24.812Z,98940.53
2023-05-01T07:37:52.865Z,98940.63
2023-05-01T07:40:19.604Z,98936.09
2023-05-01T07:42:46.393Z,98940.28
2023-05-01T07:45:13.228Z,98937.38
2023-05-01T07:47:39.936Z,98938.44
2023-05-01T07:50:11.691Z,98930.34
2023-05-01T07:52:39.252Z,98927.63
2023-05-01T07:55:06.492Z,98920.13
2023-05-01T07:57:36.014Z,98913.00
2023-05-01T08:00:02.800Z,98918.88
2023-05-01T08:02:29.543Z,98915.09
2023-05-01T08:04:56.451Z,98913.41
2023-05-01T08:07:23.224Z,98894.50
2023-05-01T08:09:49.898Z,98900.03
2023-05-01T08:12:16.561Z,98898.03
2023-05-01T08:14:43.348Z,98893.25
2023-05-01T08:17:09.974Z,98891.19
2023-05-01T08:19:36.593Z,98882.63
2023-05-01T08:22:03.227Z,98888.44
2023-05-01T08:24:29.987Z,98882.38
2023-05-01T08:26:56.993Z,98879.44
2023-05-01T08:29:23.687Z,98880.50
2023-05-01T08:31:50.541Z,98885.50
2023-05-01T08:34:17.459Z,98880.59
2023-05-01T08:36:44.097Z,98874.41
2023-05-01T08:39:10.730Z,98876.09
2023-05-01T08:41:38.340Z,98871.91
2023-05-01T08:44:05.231Z,98871.63
2023-05-01T08:46:35.044Z,98870.69
2023-05-01T08:49:05.435Z,98876.63
2023-05-01T08:51:33.953Z,98873.56
2023-05-01T08:54:02.169Z,98874.34
2023-05-01T08:56:31.332Z,98874.19
2023-05-01T08:59:01.216Z,98863.88
2023-05-01T09:01:29.627Z,98863.88
2023-05-01T09:03:58.277Z,98865.91
2023-05-01T09:06:28.635Z,98862.59
2023-05-01T09:08:55.503Z,98856.72
2023-05-01T09:11:23.996Z,98853.91
2023-05-01T09:13:51.844Z,98848.16
2023-05-01T09:16:19.548Z,98845.09
2023-05-01T09:18:47.173Z,98844.91
2023-05-01T09:21:13.883Z,98844.72
2023-05-01T09:23:41.098Z,98842.75
2023-05-01T09:26:08.299Z,98840.41
2023-05-01T09:28:45.378Z,98842.41
2023-05-01T09:31:24.861Z,98842.34
2023-05-01T09:33:54.397Z,98838.34
2023-05-01T09:36:20.985Z,98833.19
2023-05-01T09:38:47.646Z,98832.06
2023-05-01T09:41:14.688Z,98823.09
2023-05-01T09:43:41.895Z,98820.44
2023-05-01T09:46:10.766Z,98822.84
2023-05-01T09:48:38.623Z,98817.81
2023-05-01T09:51:20.082Z,98816.84
2023-05-01T09:53:46.848Z,98819.84
2023-05-01T09:56:14.728Z,98821.88
2023-05-01T09:58:41.514Z,98808.97
2023-05-01T10:01:08.770Z,98820.16
2023-05-01T10:03:35.871Z,98814.53
2023-05-01T10:06:04.053Z,98799.47
2023-05-01T10:08:50.205Z,98802.78
2023-05-01T10:11:17.208Z,98804.44
2023-05-01T10:13:43.907Z,98806.78
2023-05-01T10:16:31.362Z,98798.75
2023-05-01T10:18:58.932Z,98796.69
2023-05-01T10:21:26.166Z,98795.84
2023-05-01T10:23:53.208Z,98788.97
2023-05-01T10:26:20.773Z,98787.63
2023-05-01T10:28:49.577Z,98783.75
2023-05-01T10:31:17.133Z,98781.59
2023-05-01T10:33:45.162Z,98785.59
2023-05-01T10:36:17.750Z,98787.63
2023-05-01T10:38:48.277Z,98788.63
2023-05-01T10:41:16.583Z,98788.28
2023-05-01T10:43:43.979Z,98770.47
2023-05-01T10:46:10.601Z,98770.50
2023-05-01T10:48:43.992Z,98767.19
2023-05-01T10:51:28.017Z,98760.41
2023-05-01T10:54:13.434Z,98756.56
2023-05-01T10:56:42.972Z,98755.53
2023-05-01T10:59:10.630Z,98753.56
2023-05-01T11:01:41.645Z,98747.84
2023-05-01T11:04:20.474Z,98740.34
2023-05-01T11:07:11.566Z,98737.16
2023-05-01T11:09:46.098Z,98738.88
2023-05-01T11:12:36.612Z,98746.16
2023-05-01T11:15:05.896Z,98742.06
2023-05-01T11:17:41.621Z,98732.13
2023-05-01T11:20:37.046Z,98737.84
2023-05-01T11:23:03.735Z,98727.38
2023-05-01T11:25:31.888Z,98726.28
2023-05-01T11:28:01.184Z,98726.56
2023-05-01T11:30:36.536Z,98723.00
2023-05-01T11:33:04.236Z,98724.94
2023-05-01T11:35:32.557Z,98721.97
2023-05-01T11:37:59.241Z,98724.88
2023-05-01T11:40:26.987Z,98713.84
2023-05-01T11:43:04.732Z,98715.41
2023-05-01T11:45:32.717Z,98713.56
2023-05-01T11:48:03.003Z,98713.94
2023-05-01T11:50:35.909Z,98718.09
2023-05-01T11:53:03.682Z,98712.56
2023-05-01T11:55:34.657Z,98713.84
2023-05-01T11:58:02.715Z,98711.69
2023-05-01T12:00:36.806Z,98713.94
2023-05-01T12:03:12.008Z,98713.34
2023-05-01T12:05:42.449Z,98705.84
2023-05-01T12:08:20.800Z,98710.97
2023-05-01T12:10:49.244Z,98705.69
2023-05-01T12:13:16.867Z,98715.31
2023-05-01T12:15:46.538Z,98710.50
2023-05-01T12:18:15.572Z,98710.59
2023-05-01T12:20:44.933Z,98715.78
2023-05-01T12:23:13.317Z,98714.66
2023-05-01T12:25:41.159Z,98709.66
2023-05-01T12:28:10.645Z,98717.63
2023-05-01T12:30:38.069Z,98709.78
2023-05-01T12:33:10.227Z,98704.94
2023-05-01T12:35:37.593Z,98708.75
2023-05-01T12:38:15.585Z,98708.75
2023-05-01T12:40:52.480Z,98700.13
2023-05-01T12:43:29.643Z,98710.00
2023-05-01T12:45:56.961Z,98705.22
2023-05-01T12:48:24.947Z,98701.44
2023-05-01T12:50:55.041Z,98699.50
2023-05-01T12:53:26.494Z,98696.53
2023-05-01T12:55:58.392Z,98694.13
2023-05-01T12:58:35.787Z,98690.78
2023-05-01T13:01:02.564Z,98696.41
2023-05-01T13:03:30.239Z,98685.69
2023-05-01T13:05:59.733Z,98692.81
2023-05-01T13:08:34.408Z,98692.66
2023-05-01T13:11:09.063Z,98689.31
2023-05-01T13:13:37.551Z,98686.44
2023-05-01T13:16:09.882Z,98679.13
2023-05-01T13:18:44.717Z,98687.63
2023-05-01T13:21:14.771Z,98689.75
2023-05-01T13:23:42.696Z,98687.72
2023-05-01T13:26:11.444Z,98687.88
2023-05-01T13:28:45.590Z,98686.88
2023-05-01T13:31:14.179Z,98678.91
2023-05-01T13:33:43.545Z,98684.94
2023-05-01T13:36:24.335Z,98682.88
2023-05-01T13:38:55.821Z,98679.06
2023-05-01T13:41:28.144Z,98675.28
2023-05-01T13:43:57.130Z,98680.00
2023-05-01T13:46:26.750Z,98682.63
2023-05-01T13:48:53.631Z,98680.16
2023-05-01T13:51:22.630Z,98671.91
2023-05-01T13:53:49.487Z,98683.47
2023-05-01T13:56:16.343Z,98677.38
2023-05-01T13:58:43.170Z,98675.84
2023-05-01T14:01:15.883Z,98677.91
2023-05-01T14:03:43.363Z,98669.81
2023-05-01T14:06:18.484Z,98667.81
2023-05-01T14:08:47.004Z,98658.72
2023-05-01T14:11:14.996Z,98664.63
2023-05-01T14:13:46.317Z,98664.16
2023-05-01T14:16:33.324Z,98664.50
2023-05-01T14:19:00.021Z,98666.56
2023-05-01T14:21:28.328Z,98664.81
2023-05-01T14:23:56.717Z,98671.50
2023-05-01T14:26:24.669Z,98659.09
2023-05-01T14:28:51.623Z,98662.78
2023-05-01T14:31:27.557Z,98650.22
2023-05-01T14:33:59.550Z,98653.75
2023-05-01T14:36:28.554Z,98663.16
2023-05-01T14:39:00.126Z,98655.34
2023-05-01T14:41:27.282Z,98664.69
2023-05-01T14:43:53.949Z,98660.38
2023-05-01T14:46:31.306Z,98661.53
2023-05-01T14:49:01.031Z,98666.25
2023-05-01T14:51:28.906Z,98667.63
2023-05-01T14:53:55.582Z,98670.72
2023-05-01T14:56:23.190Z,98666.78
2023-05-01T14:58:50.096Z,98676.16
2023-05-01T15:01:18.213Z,98670.88
2023-05-01T15:03:45.621Z,98663.63
2023-05-01T15:06:12.487Z,98662.75
2023-05-01T15:08:39.214Z,98666.78
2023-05-01T15:11:06.060Z,98670.69
2023-05-01T15:13:32.741Z,98669.00
2023-05-01T15:15:59.483Z,98675.53
2023-05-01T15:18:26.483Z,98674.84
2023-05-01T15:20:53.309Z,98677.56
2023-05-01T15:23:20.285Z,98671.84
2023-05-01T15:25:47.947Z,98667.16
2023-05-01T15:28:14.786Z,98663.16
2023-05-01T15:30:46.039Z,98676.16
2023-05-01T15:33:14.468Z,98671.50
2023-05-01T15:35:43.135Z,98686.09
2023-05-01T15:38:09.735Z,98676.72
2023-05-01T15:40:36.406Z,98670.34
2023-05-01T15:43:05.480Z,98673.19
2023-05-01T15:45:32.939Z,98676.34
2023-05-01T15:47:59.682Z,98670.66
2023-05-01T15:50:27.014Z,98673.81
2023-05-01T15:52:54.888Z,98671.50
2023-05-01T15:55:22.051Z,98671.34
2023-05-01T15:57:48.890Z,98666.03
2023-05-01T16:00:16.825Z,98667.72
2023-05-01T16:02:45.283Z,98672.09
2023-05-01T16:05:14.229Z,98665.94
2023-05-01T16:07:41.090Z,98664.75
2023-05-01T16:10:08.915Z,98661.03
2023-05-01T16:12:35.738Z,98653.38
2023-05-01T16:15:04.144Z,98654.75
2023-05-01T16:17:46.654Z,98655.06
2023-05-01T16:20:14.885Z,98658.75
2023-05-01T16:22:43.191Z,98650.72
2023-05-01T16:25:10.649Z,98655.91
2023-05-01T16:27:44.157Z,98656.75
2023-05-01T16:30:14.554Z,98651.41
2023-05-01T16:32:41.825Z,98655.75
2023-05-01T16:35:15.293Z,98653.44
2023-05-01T16:37:42.520Z,98662.09
2023-05-01T16:40:10.254Z,98658.94
2023-05-01T16:42:38.489Z,98665.59
2023-05-01T16:45:08.558Z,98660.25
2023-05-01T16:47:35.990Z,98656.09
2023-05-01T16:50:03.532Z,98666.28
2023-05-01T16:52:30.476Z,98661.41
2023-05-01T16:54:57.367Z,98661.09
2023-05-01T16:57:24.050Z,98667.75
2023-05-01T16:59:51.440Z,98671.44
2023-05-01T17:02:18.250Z,98670.13
2023-05-01T17:04:45.422Z,98667.91
2023-05-01T17:07:12.327Z,98669.91
2023-05-01T17:09:38.952Z,98672.13
2023-05-01T17:12:06.368Z,98668.25
2023-05-01T17:14:33.137Z,98671.47
2023-05-01T17:16:59.942Z,98669.28
2023-05-01T17:19:26.636Z,98677.31
2023-05-01T17:21:53.355Z,98673.63
2023-05-01T17:24:20.042Z,98676.47
2023-05-01T17:26:46.835Z,98682.16
2023-05-01T17:29:13.406Z,98687.50
2023-05-01T17:31:40.084Z,98687.81
2023-05-01T17:34:06.797Z,98692.81
2023-05-01T17:36:33.489Z,98686.13
2023-05-01T17:39:01.435Z,98695.66
2023-05-01T17:41:28.188Z,98695.47
2023-05-01T17:43:55.320Z,98689.97
2023-05-01T17:46:22.040Z,98690.84
2023-05-01T17:48:48.914Z,98685.97
2023-05-01T17:51:15.677Z,98699.00
2023-05-01T17:53:42.412Z,98700.16
2023-05-01T17:56:09.120Z,98700.47
2023-05-01T17:58:35.889Z,98705.16
2023-05-01T18:01:04.725Z,98706.09
2023-05-01T18:03:32.950Z,98702.41
2023-05-01T18:06:04.377Z,98703.75
2023-05-01T18:08:31.105Z,98706.38
2023-05-01T18:10:57.735Z,98705.59
2023-05-01T18:13:28.245Z,98705.00
2023-05-01T18:15:56.089Z,98707.94
2023-05-01T18:18:23.320Z,98709.28
2023-05-01T18:20:50.050Z,98706.59
2023-05-01T18:23:18.974Z,98702.44
2023-05-01T18:25:46.439Z,98702.78
2023-05-01T18:28:16.452Z,98698.03
2023-05-01T18:30:43.360Z,98711.06
2023-05-01T18:33:10.265Z,98713.63
2023-05-01T18:35:41.872Z,98716.63
2023-05-01T18:38:09.335Z,98723.44
2023-05-01T18:40:36.058Z,98718.09
2023-05-01T18:43:02.811Z,98721.34
2023-05-01T18:45:29.481Z,98729.22
2023-05-01T18:47:56.102Z,98734.88
2023-05-01T18:50:23.160Z,98739.72
2023-05-01T18:52:50.006Z,98728.22
2023-05-01T18:55:17.501Z,98736.03
2023-05-01T18:57:44.567Z,98736.22
2023-05-01T19:00:14.619Z,98748.59
2023-05-01T19:02:41.791Z,98745.19
2023-05-01T19:05:09.138Z,98747.97
2023-05-01T19:07:35.921Z,98752.69
2023-05-01T19:10:03.696Z,98752.00
2023-05-01T19:12:30.388Z,98760.94
2023-05-01T19:14:57.056Z,98761.03
2023-05-01T19:17:23.855Z,98758.41
2023-05-01T19:19:50.722Z,98769.50
2023-05-01T19:22:17.641Z,98765.59
2023-05-01T19:24:44.252Z,98770.97
2023-05-01T19:27:11.759Z,98774.88
2023-05-01T19:29:39.776Z,98772.69
2023-05-01T19:32:07.209Z,98773.53
2023-05-01T19:34:33.923Z,98768.53
2023-05-01T19:37:02.078Z,98777.94
2023-05-01T19:39:29.617Z,98771.91
2023-05-01T19:41:56.357Z,98783.09
2023-05-01T19:44:23.026Z,98783.69
2023-05-01T19:46:49.714Z,98780.06
2023-05-01T19:49:16.581Z,98779.22
2023-05-01T19:51:43.283Z,98775.56
2023-05-01T19:54:09.941Z,98787.88
2023-05-01T19:56:38.497Z,98782.13
2023-05-01T19:59:05.268Z,98787.94
2023-05-01T20:01:32.113Z,98787.53
2023-05-01T20:03:58.827Z,98791.13
2023-05-01T20:06:25.548Z,98784.38
2023-05-01T20:08:52.289Z,98791.81
2023-05-01T20:11:18.944Z,98790.44
2023-05-01T20:13:46.067Z,98795.47
2023-05-01T20:16:12.709Z,98796.72
2023-05-01T20:18:39.409Z,98793.22
2023-05-01T20:21:07.446Z,98797.00
2023-05-01T20:23:34.578Z,98802.72
2023-05-01T20:26:01.420Z,98807.06
2023-05-01T20:28:28.600Z,98812.25
2023-05-01T20:30:56.118Z,98813.34
2023-05-01T20:33:22.904Z,98811.81
2023-05-01T20:35:49.626Z,98812.78
2023-05-01T20:38:16.278Z,98815.03
2023-05-01T20:40:43.152Z,98818.13
2023-05-01T20:43:09.816Z,98818.25
2023-05-01T20:45:37.057Z,98824.53
2023-05-01T20:48:04.026Z,98820.06
2023-05-01T20:50:30.716Z,98820.91
2023-05-01T20:52:57.450Z,98827.44
2023-05-01T20:55:24.599Z,98825.09
2023-05-01T20:57:51.248Z,98830.38
2023-05-01T21:00:17.882Z,98832.88
2023-05-01T21:02:44.988Z,98831.19
2023-05-01T21:05:12.170Z,98836.38
2023-05-01T21:07:39.839Z,98832.47
2023-05-01T21:10:10.466Z,98838.19
2023-05-01T21:12:37.403Z,98838.06
2023-05-01T21:15:04.897Z,98840.84
2023-05-01T21:17:34.609Z,98833.97
2023-05-01T21:20:01.701Z,98837.94
2023-05-01T21:22:28.714Z,98839.59
2023-05-01T21:25:00.093Z,98846.41
2023-05-01T21:27:27.464Z,98841.81
2023-05-01T21:30:01.848Z,98849.59
2023-05-01T21:32:32.556Z,98854.00
2023-05-01T21:35:03.706Z,98841.88
2023-05-01T21:37:30.520Z,98853.31
2023-05-01T21:40:01.256Z,98856.22
2023-05-01T21:42:35.342Z,98857.28
2023-05-01T21:45:09.926Z,98859.25
2023-05-01T21:47:42.309Z,98868.31
2023-05-01T21:50:13.111Z,98862.41
2023-05-01T21:52:40.682Z,98874.03
2023-05-01T21:55:12.015Z,98867.16
2023-05-01T21:57:39.938Z,98864.63
2023-05-01T22:00:10.416Z,98868.84
2023-05-01T22:02:44.912Z,98872.34
2023-05-01T22:05:14.074Z,98868.53
2023-05-01T22:07:42.390Z,98868.78
2023-05-01T22:10:11.676Z,98869.78
2023-05-01T22:12:39.735Z,98870.28
2023-05-01T22:15:08.339Z,98874.16
2023-05-01T22:17:35.199Z,98870.66
2023-05-01T22:20:02.182Z,98876.94
2023-05-01T22:22:29.003Z,98875.16
2023-05-01T22:24:56.133Z,98873.56
2023-05-01T22:27:22.800Z,98880.66
2023-05-01T22:29:49.539Z,98890.19
2023-05-01T22:32:16.332Z,98894.50
2023-05-01T22:34:43.089Z,98887.97
2023-05-01T22:37:09.941Z,98893.28
2023-05-01T22:39:36.793Z,98895.19
2023-05-01T22:42:04.078Z,98899.41
2023-05-01T22:44:31.079Z,98905.22
2023-05-01T22:46:59.512Z,98895.47
2023-05-01T22:49:28.588Z,98897.69
2023-05-01T22:51:56.117Z,98904.91
2023-05-01T22:54:23.105Z,98906.59
2023-05-01T22:56:50.324Z,98906.00
2023-05-01T22:59:17.783Z,98912.72
2023-05-01T23:01:45.475Z,98907.56
2023-05-01T23:04:14.260Z,98914.09
2023-05-01T23:06:41.284Z,98914.09
2023-05-01T23:09:08.476Z,98916.47
2023-05-01T23:11:35.448Z,98920.81
2023-05-01T23:14:02.205Z,98917.69
2023-05-01T23:16:36.608Z,98925.44
2023-05-01T23:19:03.759Z,98929.88
2023-05-01T23:21:31.177Z,98929.31
2023-05-01T23:23:57.886Z,98932.41
2023-05-01T23:26:33.015Z,98932.41
2023-05-01T23:29:00.273Z,98923.50
2023-05-01T23:31:27.742Z,98923.63
2023-05-01T23:33:55.417Z,98925.88
2023-05-01T23:36:22.426Z,98924.94
2023-05-01T23:38:49.226Z,98922.16
2023-05-01T23:41:16.265Z,98918.66
2023-05-01T23:43:48.002Z,98925.75
2023-05-01T23:46:14.846Z,98916.00
2023-05-01T23:48:42.050Z,98930.50
2023-05-01T23:51:09.024Z,98930.50
2023-05-01T23:53:35.778Z,98934.94
2023-05-01T23:56:02.429Z,98920.72
2023-05-01T23:58:29.119Z,98924.19
